Lake Worth, FL (33460)

12:15 PM EDT on August 28, 2015 (GMT -0400)
Lake Clarke Shores - Caribbean Rd. East | | Change Station
CLOSE
Current Station
Personal Weather Station
Location: Lake Clarke Shores, FL
Elevation: 16 ft
Nearby Weather Stations

Elev 16 ft 26.63 °N, 80.07 °W | Updated 8 seconds ago

Mostly Cloudy
Mostly Cloudy
96.6 °F
Feels Like 117 °F
N
5.4
Wind Variable Wind from SW
Gusts 6.5 mph

Today
High -- | Low -- °F
--% Chance of Precip.
Yesterday
High -- | Low -- °F
Precip. -- in
6:58 AM 7:44 PM
Waxing Gibbous, 98% visible
Pressure 30.03 in
Visibility 10.0 miles
Clouds Mostly Cloudy 2800 ft
Mostly Cloudy 4600 ft
Mostly Cloudy 25000 ft
Heat Index 117 °F
Dew Point 80 °F
Humidity 59%
Rainfall 0.00 in
Snow Depth Not available.
UV 7 out of 12
Pollen 2.10 out of 12
Air Quality Not available.
Flu Activity Not available.
METAR KPBI 281553Z 14008KT 10SM BKN028CB BKN046 BKN250 30/24 A3003 RMK AO2 SLP169 CB NE-E MOV NE CB DSNT NE-SE S T03000239
Pressure 30.03 in
Visibility 10.0 miles
Clouds Mostly Cloudy 2800 ft
Mostly Cloudy 4600 ft
Mostly Cloudy 25000 ft
Heat Index 117 °F
Dew Point 80 °F
Humidity 59%
Rainfall 0.00 in
Snow Depth Not available.
UV 7 out of 12
Pollen 2.10 out of 12
Air Quality Not available.
Flu Activity Not available.
METAR KPBI 281553Z 14008KT 10SM BKN028CB BKN046 BKN250 30/24 A3003 RMK AO2 SLP169 CB NE-E MOV NE CB DSNT NE-SE S T03000239
Erika has become very unorganized in the face of strong wind shear in the eastern Caribbean Sea. The storm will pass directly over mountainous Hispaniola today, likely weakening it further. If the storm remains intact, it could reach an area favorable for strengthening before moving onto Florida by early next week. Follow the live blog

10-Day Weather Forecast

×

Almanac

Astronomy

Aug. 28, 2015 Rise Set
Actual Time
Civil Twilight
Nautical Twilight
Astronomical Twilight
Moon
Length of Visible Light
Length of Day
Tomorrow will be .
, % of the Moon is Illuminated

Today's Extremes

State Highs State Lows

Community

WunderPhotos

Upload Photos

1,850,414 photos uploaded!

WunderBlogs® & News

Nearby

Air Quality

  Air Quality AQ Index Pollutant
Not available.

Snow Depth

Station Depth Elevation

Earthquake Activity

City Distance Mag. Time & Date
Minimum magnitude displayed is 2.5.

Coastal Water Temperatures

Place Temperature

Stations

Nearby Weather Stations

Station Location Temp. Windchill Dew Point Humidity Wind Precip. Elev Updated Type